sensor_id;sensor_type;location;lat;lon;timestamp;pressure;altitude;pressure_sealevel;temperature;humidity
33075;BME280;19433;51.292;6.868;2022-12-24T01:12:34;99578.06;;;8.17;100.00
33075;BME280;19433;51.292;6.868;2022-12-24T01:17:34;99588.00;;;8.11;100.00
33075;BME280;19433;51.292;6.868;2022-12-24T01:20:00;99589.94;;;8.24;100.00
33075;BME280;19433;51.292;6.868;2022-12-24T01:22:25;99591.63;;;8.25;100.00
33075;BME280;19433;51.292;6.868;2022-12-24T01:24:50;99595.44;;;8.24;100.00
33075;BME280;19433;51.292;6.868;2022-12-24T01:47:57;99617.25;;;8.58;100.00
33075;BME280;19433;51.292;6.868;2022-12-24T02:11:38;99661.47;;;8.30;100.00
33075;BME280;19433;51.292;6.868;2022-12-24T02:14:08;99654.28;;;8.23;100.00
33075;BME280;19433;51.292;6.868;2022-12-24T02:30:00;99683.03;;;8.13;100.00
33075;BME280;19433;51.292;6.868;2022-12-24T02:37:55;99692.59;;;8.31;100.00
33075;BME280;19433;51.292;6.868;2022-12-24T02:40:29;99692.78;;;8.23;100.00
33075;BME280;19433;51.292;6.868;2022-12-24T03:11:24;99693.78;;;7.48;100.00
33075;BME280;19433;51.292;6.868;2022-12-24T03:13:50;99705.38;;;7.43;100.00
33075;BME280;19433;51.292;6.868;2022-12-24T03:16:22;99703.94;;;7.47;100.00
33075;BME280;19433;51.292;6.868;2022-12-24T03:18:53;99694.66;;;7.48;100.00
33075;BME280;19433;51.292;6.868;2022-12-24T03:21:37;99693.81;;;7.54;100.00
33075;BME280;19433;51.292;6.868;2022-12-24T03:24:05;99699.78;;;7.64;100.00
33075;BME280;19433;51.292;6.868;2022-12-24T03:26:31;99699.66;;;7.79;100.00
33075;BME280;19433;51.292;6.868;2022-12-24T03:28:58;99703.91;;;7.88;100.00
33075;BME280;19433;51.292;6.868;2022-12-24T03:31:23;99706.25;;;7.98;100.00
33075;BME280;19433;51.292;6.868;2022-12-24T03:33:48;99710.53;;;8.07;100.00
33075;BME280;19433;51.292;6.868;2022-12-24T03:36:14;99716.88;;;8.07;100.00
33075;BME280;19433;51.292;6.868;2022-12-24T03:38:39;99722.38;;;8.07;100.00
33075;BME280;19433;51.292;6.868;2022-12-24T03:41:06;99719.84;;;8.06;100.00
33075;BME280;19433;51.292;6.868;2022-12-24T03:43:32;99718.78;;;8.13;100.00
33075;BME280;19433;51.292;6.868;2022-12-24T03:45:57;99714.78;;;8.16;100.00
33075;BME280;19433;51.292;6.868;2022-12-24T03:48:22;99713.31;;;8.20;100.00
33075;BME280;19433;51.292;6.868;2022-12-24T03:50:48;99715.22;;;8.20;100.00
33075;BME280;19433;51.292;6.868;2022-12-24T03:53:14;99724.72;;;8.17;100.00
33075;BME280;19433;51.292;6.868;2022-12-24T03:55:39;99727.06;;;8.20;100.00
33075;BME280;19433;51.292;6.868;2022-12-24T03:58:05;99728.78;;;8.28;100.00
33075;BME280;19433;51.292;6.868;2022-12-24T04:00:30;99731.19;;;8.37;100.00
33075;BME280;19433;51.292;6.868;2022-12-24T04:02:56;99726.66;;;8.30;100.00
33075;BME280;19433;51.292;6.868;2022-12-24T04:05:21;99743.03;;;8.44;100.00
33075;BME280;19433;51.292;6.868;2022-12-24T04:07:46;99729.88;;;8.33;100.00
33075;BME280;19433;51.292;6.868;2022-12-24T04:10:13;99732.44;;;8.35;100.00
33075;BME280;19433;51.292;6.868;2022-12-24T04:12:39;99743.03;;;8.38;100.00
33075;BME280;19433;51.292;6.868;2022-12-24T04:15:05;99744.50;;;8.40;100.00
33075;BME280;19433;51.292;6.868;2022-12-24T04:17:31;99733.28;;;8.35;100.00
33075;BME280;19433;51.292;6.868;2022-12-24T04:19:56;99740.50;;;8.36;100.00
33075;BME280;19433;51.292;6.868;2022-12-24T04:22:21;99741.75;;;8.34;100.00
33075;BME280;19433;51.292;6.868;2022-12-24T04:24:46;99742.38;;;8.36;100.00
33075;BME280;19433;51.292;6.868;2022-12-24T04:27:13;99742.19;;;8.37;100.00
33075;BME280;19433;51.292;6.868;2022-12-24T04:29:38;99752.53;;;8.42;100.00
33075;BME280;19433;51.292;6.868;2022-12-24T04:32:03;99764.63;;;8.48;100.00
33075;BME280;19433;51.292;6.868;2022-12-24T04:34:29;99764.03;;;8.52;100.00
33075;BME280;19433;51.292;6.868;2022-12-24T04:36:54;99760.84;;;8.49;100.00
33075;BME280;19433;51.292;6.868;2022-12-24T04:39:19;99759.78;;;8.50;100.00
33075;BME280;19433;51.292;6.868;2022-12-24T04:41:45;99763.59;;;8.49;100.00
33075;BME280;19433;51.292;6.868;2022-12-24T04:44:10;99773.75;;;8.48;100.00
33075;BME280;19433;51.292;6.868;2022-12-24T04:46:36;99764.44;;;8.49;100.00
33075;BME280;19433;51.292;6.868;2022-12-24T04:49:01;99769.53;;;8.52;100.00
33075;BME280;19433;51.292;6.868;2022-12-24T04:51:27;99782.63;;;8.37;100.00
33075;BME280;19433;51.292;6.868;2022-12-24T04:53:53;99786.56;;;8.21;100.00
33075;BME280;19433;51.292;6.868;2022-12-24T04:56:21;99782.25;;;8.12;100.00
33075;BME280;19433;51.292;6.868;2022-12-24T04:58:47;99792.00;;;8.08;100.00
33075;BME280;19433;51.292;6.868;2022-12-24T05:01:18;99781.41;;;8.05;100.00
33075;BME280;19433;51.292;6.868;2022-12-24T05:03:44;99772.31;;;8.04;100.00
33075;BME280;19433;51.292;6.868;2022-12-24T05:06:12;99773.97;;;7.99;100.00
33075;BME280;19433;51.292;6.868;2022-12-24T05:11:14;99790.66;;;7.97;100.00
33075;BME280;19433;51.292;6.868;2022-12-24T05:13:41;99780.97;;;8.01;100.00
33075;BME280;19433;51.292;6.868;2022-12-24T05:18:48;99779.25;;;8.00;100.00
33075;BME280;19433;51.292;6.868;2022-12-24T05:21:16;99786.88;;;7.98;100.00
33075;BME280;19433;51.292;6.868;2022-12-24T05:23:42;99782.19;;;7.92;100.00
33075;BME280;19433;51.292;6.868;2022-12-24T05:29:08;99792.81;;;8.02;100.00
33075;BME280;19433;51.292;6.868;2022-12-24T05:31:36;99804.47;;;8.04;100.00
33075;BME280;19433;51.292;6.868;2022-12-24T05:46:59;99805.06;;;7.99;100.00
33075;BME280;19433;51.292;6.868;2022-12-24T05:49:25;99805.31;;;8.04;100.00
33075;BME280;19433;51.292;6.868;2022-12-24T05:54:26;99806.16;;;8.05;100.00
33075;BME280;19433;51.292;6.868;2022-12-24T05:56:51;99803.63;;;8.03;100.00
33075;BME280;19433;51.292;6.868;2022-12-24T06:01:52;99817.63;;;8.08;100.00
33075;BME280;19433;51.292;6.868;2022-12-24T06:04:17;99820.38;;;8.15;100.00
33075;BME280;19433;51.292;6.868;2022-12-24T06:32:34;99840.50;;;7.81;100.00
33075;BME280;19433;51.292;6.868;2022-12-24T06:34:59;99841.81;;;7.85;100.00
33075;BME280;19433;51.292;6.868;2022-12-24T06:37:25;99839.44;;;7.82;100.00
33075;BME280;19433;51.292;6.868;2022-12-24T06:45:01;99846.25;;;7.86;100.00
33075;BME280;19433;51.292;6.868;2022-12-24T06:47:26;99852.41;;;7.88;100.00
33075;BME280;19433;51.292;6.868;2022-12-24T06:49:51;99857.91;;;7.88;100.00
33075;BME280;19433;51.292;6.868;2022-12-24T06:52:17;99856.66;;;7.91;100.00
33075;BME280;19433;51.292;6.868;2022-12-24T06:54:42;99863.41;;;7.88;100.00
33075;BME280;19433;51.292;6.868;2022-12-24T06:59:42;99884.63;;;7.94;100.00
33075;BME280;19433;51.292;6.868;2022-12-24T07:02:08;99889.50;;;7.99;100.00
33075;BME280;19433;51.292;6.868;2022-12-24T07:04:34;99881.25;;;7.99;100.00
33075;BME280;19433;51.292;6.868;2022-12-24T07:06:59;99896.56;;;8.15;100.00
33075;BME280;19433;51.292;6.868;2022-12-24T07:09:24;99884.03;;;8.05;100.00
33075;BME280;19433;51.292;6.868;2022-12-24T07:11:49;99894.22;;;8.11;100.00
33075;BME280;19433;51.292;6.868;2022-12-24T07:14:15;99884.13;;;8.19;100.00
33075;BME280;19433;51.292;6.868;2022-12-24T07:16:40;99879.91;;;8.23;100.00
33075;BME280;19433;51.292;6.868;2022-12-24T07:19:05;99887.72;;;8.19;100.00
33075;BME280;19433;51.292;6.868;2022-12-24T07:21:30;99888.31;;;8.15;100.00
33075;BME280;19433;51.292;6.868;2022-12-24T07:23:56;99897.63;;;8.13;100.00
33075;BME280;19433;51.292;6.868;2022-12-24T07:26:21;99900.16;;;8.08;100.00
33075;BME280;19433;51.292;6.868;2022-12-24T07:28:46;99904.16;;;8.12;100.00
33075;BME280;19433;51.292;6.868;2022-12-24T07:31:12;99907.13;;;8.11;100.00
33075;BME280;19433;51.292;6.868;2022-12-24T07:33:37;99908.88;;;8.19;100.00
33075;BME280;19433;51.292;6.868;2022-12-24T07:36:07;99915.81;;;8.08;100.00
33075;BME280;19433;51.292;6.868;2022-12-24T07:38:33;99910.25;;;8.01;100.00
33075;BME280;19433;51.292;6.868;2022-12-24T07:41:00;99912.91;;;7.88;100.00
33075;BME280;19433;51.292;6.868;2022-12-24T07:43:26;99923.44;;;7.78;100.00
33075;BME280;19433;51.292;6.868;2022-12-24T07:45:56;99910.28;;;7.73;100.00
33075;BME280;19433;51.292;6.868;2022-12-24T07:48:21;99926.97;;;7.72;100.00
33075;BME280;19433;51.292;6.868;2022-12-24T07:50:50;99930.56;;;7.72;100.00
33075;BME280;19433;51.292;6.868;2022-12-24T07:53:16;99933.91;;;7.68;100.00
33075;BME280;19433;51.292;6.868;2022-12-24T07:55:42;99938.25;;;7.56;100.00
33075;BME280;19433;51.292;6.868;2022-12-24T07:58:08;99944.66;;;7.63;100.00
33075;BME280;19433;51.292;6.868;2022-12-24T08:00:33;99944.84;;;7.61;100.00
33075;BME280;19433;51.292;6.868;2022-12-24T08:02:58;99957.94;;;7.59;100.00
33075;BME280;19433;51.292;6.868;2022-12-24T08:05:25;99958.81;;;7.60;100.00
33075;BME280;19433;51.292;6.868;2022-12-24T08:07:51;99961.53;;;7.60;100.00
33075;BME280;19433;51.292;6.868;2022-12-24T08:10:16;99963.44;;;7.59;100.00
33075;BME280;19433;51.292;6.868;2022-12-24T08:12:41;99974.06;;;7.62;100.00
33075;BME280;19433;51.292;6.868;2022-12-24T08:15:07;99977.66;;;7.63;100.00
33075;BME280;19433;51.292;6.868;2022-12-24T08:17:32;99973.91;;;7.70;100.00
33075;BME280;19433;51.292;6.868;2022-12-24T08:19:57;99968.66;;;7.75;100.00
33075;BME280;19433;51.292;6.868;2022-12-24T08:22:23;99990.03;;;7.80;100.00
33075;BME280;19433;51.292;6.868;2022-12-24T08:24:48;99983.25;;;7.76;100.00
33075;BME280;19433;51.292;6.868;2022-12-24T08:27:13;99986.31;;;7.88;100.00
33075;BME280;19433;51.292;6.868;2022-12-24T08:29:38;99998.63;;;7.92;100.00
33075;BME280;19433;51.292;6.868;2022-12-24T08:32:04;100003.09;;;7.93;100.00
33075;BME280;19433;51.292;6.868;2022-12-24T08:34:29;99991.91;;;8.01;100.00
33075;BME280;19433;51.292;6.868;2022-12-24T08:36:54;99994.53;;;8.09;100.00
33075;BME280;19433;51.292;6.868;2022-12-24T08:39:19;100001.94;;;8.08;100.00
33075;BME280;19433;51.292;6.868;2022-12-24T08:41:45;100006.16;;;8.11;100.00
33075;BME280;19433;51.292;6.868;2022-12-24T08:44:10;100002.63;;;8.17;100.00
33075;BME280;19433;51.292;6.868;2022-12-24T08:46:36;100012.19;;;8.21;100.00
33075;BME280;19433;51.292;6.868;2022-12-24T08:49:01;100006.50;;;8.23;100.00
33075;BME280;19433;51.292;6.868;2022-12-24T08:51:26;100004.63;;;8.30;100.00
33075;BME280;19433;51.292;6.868;2022-12-24T08:53:51;100002.59;;;8.38;100.00
33075;BME280;19433;51.292;6.868;2022-12-24T08:56:17;100010.00;;;8.38;100.00
33075;BME280;19433;51.292;6.868;2022-12-24T08:58:42;100003.22;;;8.40;100.00
33075;BME280;19433;51.292;6.868;2022-12-24T09:01:13;100014.88;;;8.42;100.00
33075;BME280;19433;51.292;6.868;2022-12-24T09:03:39;100008.53;;;8.42;100.00
33075;BME280;19433;51.292;6.868;2022-12-24T09:06:05;100017.44;;;8.44;100.00
33075;BME280;19433;51.292;6.868;2022-12-24T09:08:31;100020.25;;;8.51;100.00
33075;BME280;19433;51.292;6.868;2022-12-24T09:11:11;100011.16;;;8.57;100.00
33075;BME280;19433;51.292;6.868;2022-12-24T09:13:37;100018.22;;;8.66;100.00
33075;BME280;19433;51.292;6.868;2022-12-24T09:16:03;100038.16;;;8.68;100.00
33075;BME280;19433;51.292;6.868;2022-12-24T09:18:29;100033.50;;;8.68;100.00
33075;BME280;19433;51.292;6.868;2022-12-24T09:21:05;100033.31;;;8.70;100.00
33075;BME280;19433;51.292;6.868;2022-12-24T09:23:31;100045.78;;;8.72;100.00
33075;BME280;19433;51.292;6.868;2022-12-24T09:25:58;100049.84;;;8.76;100.00
33075;BME280;19433;51.292;6.868;2022-12-24T09:28:23;100061.56;;;8.85;100.00
33075;BME280;19433;51.292;6.868;2022-12-24T09:30:59;100066.41;;;8.83;100.00
33075;BME280;19433;51.292;6.868;2022-12-24T09:33:26;100073.63;;;8.84;100.00
33075;BME280;19433;51.292;6.868;2022-12-24T09:35:52;100080.16;;;8.76;100.00
33075;BME280;19433;51.292;6.868;2022-12-24T09:38:19;100080.19;;;8.83;100.00
33075;BME280;19433;51.292;6.868;2022-12-24T09:40:44;100088.25;;;8.85;100.00
33075;BME280;19433;51.292;6.868;2022-12-24T09:43:18;100102.31;;;9.03;100.00
33075;BME280;19433;51.292;6.868;2022-12-24T09:46:00;100096.94;;;9.23;100.00
33075;BME280;19433;51.292;6.868;2022-12-24T09:48:30;100099.94;;;9.34;100.00
33075;BME280;19433;51.292;6.868;2022-12-24T09:51:14;100093.97;;;9.24;100.00
33075;BME280;19433;51.292;6.868;2022-12-24T09:53:56;100110.94;;;9.28;100.00
33075;BME280;19433;51.292;6.868;2022-12-24T09:56:27;100113.78;;;9.47;100.00
33075;BME280;19433;51.292;6.868;2022-12-24T09:59:02;100110.84;;;9.56;100.00
33075;BME280;19433;51.292;6.868;2022-12-24T10:01:30;100105.78;;;9.59;100.00
33075;BME280;19433;51.292;6.868;2022-12-24T10:03:57;100108.81;;;9.77;100.00
33075;BME280;19433;51.292;6.868;2022-12-24T10:06:33;100110.66;;;9.57;100.00
33075;BME280;19433;51.292;6.868;2022-12-24T10:12:03;100115.97;;;9.59;100.00
33075;BME280;19433;51.292;6.868;2022-12-24T10:17:36;100114.25;;;9.64;100.00
33075;BME280;19433;51.292;6.868;2022-12-24T10:23:05;100133.91;;;9.41;100.00
33075;BME280;19433;51.292;6.868;2022-12-24T10:25:52;100116.06;;;9.31;100.00
33075;BME280;19433;51.292;6.868;2022-12-24T10:28:33;100116.06;;;9.37;100.00
33075;BME280;19433;51.292;6.868;2022-12-24T10:31:02;100125.19;;;9.31;100.00
33075;BME280;19433;51.292;6.868;2022-12-24T10:33:36;100125.00;;;9.39;100.00
33075;BME280;19433;51.292;6.868;2022-12-24T10:36:10;100132.31;;;9.60;100.00
33075;BME280;19433;51.292;6.868;2022-12-24T10:38:37;100127.22;;;9.70;100.00
33075;BME280;19433;51.292;6.868;2022-12-24T10:41:02;100125.56;;;9.76;100.00
33075;BME280;19433;51.292;6.868;2022-12-24T10:43:28;100131.47;;;9.66;100.00
33075;BME280;19433;51.292;6.868;2022-12-24T10:45:56;100126.75;;;9.53;100.00
33075;BME280;19433;51.292;6.868;2022-12-24T10:48:28;100123.19;;;9.60;100.00
33075;BME280;19433;51.292;6.868;2022-12-24T10:51:16;100118.91;;;9.57;100.00
33075;BME280;19433;51.292;6.868;2022-12-24T10:54:00;100110.13;;;9.34;100.00
33075;BME280;19433;51.292;6.868;2022-12-24T10:56:30;100117.97;;;9.30;100.00
33075;BME280;19433;51.292;6.868;2022-12-24T10:58:56;100105.59;;;9.20;100.00
33075;BME280;19433;51.292;6.868;2022-12-24T11:01:44;100107.50;;;9.19;100.00
33075;BME280;19433;51.292;6.868;2022-12-24T11:04:21;100109.69;;;9.30;100.00
33075;BME280;19433;51.292;6.868;2022-12-24T11:06:56;100113.31;;;9.37;100.00
33075;BME280;19433;51.292;6.868;2022-12-24T11:09:30;100114.06;;;9.59;100.00
33075;BME280;19433;51.292;6.868;2022-12-24T11:11:57;100112.84;;;9.81;100.00
33075;BME280;19433;51.292;6.868;2022-12-24T11:14:24;100107.72;;;9.78;100.00
33075;BME280;19433;51.292;6.868;2022-12-24T11:16:54;100106.28;;;9.89;100.00
33075;BME280;19433;51.292;6.868;2022-12-24T11:19:37;100107.53;;;9.86;100.00
33075;BME280;19433;51.292;6.868;2022-12-24T11:22:17;100114.34;;;9.91;100.00
33075;BME280;19433;51.292;6.868;2022-12-24T11:24:43;100109.44;;;9.73;100.00
33075;BME280;19433;51.292;6.868;2022-12-24T11:27:44;100107.97;;;9.90;100.00
33075;BME280;19433;51.292;6.868;2022-12-24T11:32:43;100116.78;;;10.46;100.00
33075;BME280;19433;51.292;6.868;2022-12-24T11:35:22;100120.16;;;10.81;100.00
33075;BME280;19433;51.292;6.868;2022-12-24T11:38:11;100115.81;;;11.25;100.00
33075;BME280;19433;51.292;6.868;2022-12-24T11:40:45;100116.13;;;11.48;100.00
33075;BME280;19433;51.292;6.868;2022-12-24T11:43:16;100121.13;;;11.20;100.00
33075;BME280;19433;51.292;6.868;2022-12-24T11:45:56;100127.53;;;11.01;100.00
33075;BME280;19433;51.292;6.868;2022-12-24T11:48:33;100126.31;;;10.70;100.00
33075;BME280;19433;51.292;6.868;2022-12-24T11:51:03;100121.66;;;10.38;100.00
33075;BME280;19433;51.292;6.868;2022-12-24T11:53:40;100125.06;;;10.33;100.00
33075;BME280;19433;51.292;6.868;2022-12-24T11:56:14;100128.22;;;10.23;100.00
33075;BME280;19433;51.292;6.868;2022-12-24T11:58:44;100129.31;;;10.36;100.00
33075;BME280;19433;51.292;6.868;2022-12-24T12:03:50;100128.66;;;10.60;100.00
33075;BME280;19433;51.292;6.868;2022-12-24T12:06:29;100131.84;;;10.83;100.00
33075;BME280;19433;51.292;6.868;2022-12-24T12:09:02;100132.59;;;11.30;100.00
33075;BME280;19433;51.292;6.868;2022-12-24T12:11:29;100134.94;;;11.26;100.00
33075;BME280;19433;51.292;6.868;2022-12-24T12:13:58;100135.59;;;11.28;100.00
33075;BME280;19433;51.292;6.868;2022-12-24T12:16:39;100133.72;;;11.03;100.00
33075;BME280;19433;51.292;6.868;2022-12-24T12:19:41;100146.03;;;11.13;100.00
33075;BME280;19433;51.292;6.868;2022-12-24T12:22:28;100128.38;;;11.08;100.00
33075;BME280;19433;51.292;6.868;2022-12-24T12:24:57;100139.00;;;11.24;100.00
33075;BME280;19433;51.292;6.868;2022-12-24T12:27:42;100138.31;;;11.35;99.65
33075;BME280;19433;51.292;6.868;2022-12-24T12:30:15;100129.47;;;11.64;99.40
33075;BME280;19433;51.292;6.868;2022-12-24T12:35:20;100141.25;;;11.47;99.37
33075;BME280;19433;51.292;6.868;2022-12-24T12:37:56;100137.81;;;11.51;98.88
33075;BME280;19433;51.292;6.868;2022-12-24T12:40:35;100150.84;;;11.38;98.51
33075;BME280;19433;51.292;6.868;2022-12-24T12:45:54;100162.84;;;11.12;100.00
33075;BME280;19433;51.292;6.868;2022-12-24T12:48:33;100156.50;;;10.98;100.00
33075;BME280;19433;51.292;6.868;2022-12-24T12:51:24;100163.06;;;11.04;100.00
33075;BME280;19433;51.292;6.868;2022-12-24T12:54:07;100169.00;;;11.14;99.68
33075;BME280;19433;51.292;6.868;2022-12-24T12:56:35;100174.53;;;11.01;100.00
33075;BME280;19433;51.292;6.868;2022-12-24T12:59:17;100170.94;;;11.07;100.00
33075;BME280;19433;51.292;6.868;2022-12-24T13:13:42;100188.16;;;11.02;99.93
33075;BME280;19433;51.292;6.868;2022-12-24T13:21:53;100173.50;;;10.49;100.00
33075;BME280;19433;51.292;6.868;2022-12-24T13:24:22;100172.22;;;10.38;100.00
33075;BME280;19433;51.292;6.868;2022-12-24T13:29:50;100187.50;;;11.00;97.65
33075;BME280;19433;51.292;6.868;2022-12-24T13:34:55;100177.50;;;11.25;94.46
33075;BME280;19433;51.292;6.868;2022-12-24T13:37:25;100183.22;;;11.17;95.24
33075;BME280;19433;51.292;6.868;2022-12-24T13:42:46;100183.72;;;10.68;97.09
33075;BME280;19433;51.292;6.868;2022-12-24T13:50:50;100199.00;;;10.38;97.42
33075;BME280;19433;51.292;6.868;2022-12-24T13:53:39;100189.63;;;10.32;98.76
33075;BME280;19433;51.292;6.868;2022-12-24T13:58:42;100191.84;;;10.09;99.75
33075;BME280;19433;51.292;6.868;2022-12-24T14:01:10;100189.06;;;9.96;98.79
33075;BME280;19433;51.292;6.868;2022-12-24T14:03:58;100192.88;;;9.88;98.12
33075;BME280;19433;51.292;6.868;2022-12-24T14:06:25;100200.91;;;9.83;99.15
33075;BME280;19433;51.292;6.868;2022-12-24T14:08:54;100192.59;;;9.70;99.68
33075;BME280;19433;51.292;6.868;2022-12-24T14:11:23;100202.31;;;9.59;100.00
33075;BME280;19433;51.292;6.868;2022-12-24T14:16:31;100207.31;;;9.49;100.00
33075;BME280;19433;51.292;6.868;2022-12-24T14:24:49;100211.69;;;9.30;99.94
33075;BME280;19433;51.292;6.868;2022-12-24T14:27:24;100223.25;;;9.19;100.00
33075;BME280;19433;51.292;6.868;2022-12-24T14:30:00;100216.59;;;9.07;100.00
33075;BME280;19433;51.292;6.868;2022-12-24T14:32:41;100220.38;;;8.99;100.00
33075;BME280;19433;51.292;6.868;2022-12-24T14:35:25;100232.66;;;8.97;100.00
33075;BME280;19433;51.292;6.868;2022-12-24T14:38:03;100241.50;;;8.92;100.00
33075;BME280;19433;51.292;6.868;2022-12-24T14:43:34;100248.88;;;9.13;100.00
33075;BME280;19433;51.292;6.868;2022-12-24T14:52:23;100241.97;;;9.24;100.00
33075;BME280;19433;51.292;6.868;2022-12-24T14:54:53;100239.41;;;9.22;100.00
33075;BME280;19433;51.292;6.868;2022-12-24T14:57:37;100243.84;;;9.16;100.00
33075;BME280;19433;51.292;6.868;2022-12-24T15:00:17;100248.22;;;9.11;100.00
33075;BME280;19433;51.292;6.868;2022-12-24T15:02:49;100254.50;;;8.98;100.00
33075;BME280;19433;51.292;6.868;2022-12-24T15:05:16;100262.00;;;8.83;100.00
33075;BME280;19433;51.292;6.868;2022-12-24T15:07:54;100263.03;;;8.61;100.00
33075;BME280;19433;51.292;6.868;2022-12-24T15:10:37;100260.75;;;8.43;100.00
33075;BME280;19433;51.292;6.868;2022-12-24T15:13:14;100267.78;;;8.31;100.00
33075;BME280;19433;51.292;6.868;2022-12-24T15:15:50;100272.66;;;8.14;100.00
33075;BME280;19433;51.292;6.868;2022-12-24T15:18:19;100284.38;;;8.01;100.00
33075;BME280;19433;51.292;6.868;2022-12-24T15:20:49;100273.22;;;7.88;100.00
33075;BME280;19433;51.292;6.868;2022-12-24T15:23:26;100285.63;;;7.84;100.00
33075;BME280;19433;51.292;6.868;2022-12-24T15:26:13;100286.19;;;7.80;100.00
33075;BME280;19433;51.292;6.868;2022-12-24T15:28:40;100293.88;;;7.69;100.00
33075;BME280;19433;51.292;6.868;2022-12-24T15:31:10;100286.59;;;7.62;100.00
33075;BME280;19433;51.292;6.868;2022-12-24T15:33:36;100286.69;;;7.54;100.00
33075;BME280;19433;51.292;6.868;2022-12-24T15:36:03;100297.19;;;7.50;100.00
33075;BME280;19433;51.292;6.868;2022-12-24T15:38:32;100301.94;;;7.41;100.00
33075;BME280;19433;51.292;6.868;2022-12-24T15:41:01;100309.72;;;7.38;100.00
33075;BME280;19433;51.292;6.868;2022-12-24T15:43:28;100306.19;;;7.29;100.00
33075;BME280;19433;51.292;6.868;2022-12-24T15:45:54;100298.50;;;7.25;100.00
33075;BME280;19433;51.292;6.868;2022-12-24T15:48:23;100301.22;;;7.10;100.00
33075;BME280;19433;51.292;6.868;2022-12-24T15:50:54;100303.88;;;7.18;100.00
33075;BME280;19433;51.292;6.868;2022-12-24T15:56:08;100316.13;;;7.16;100.00
33075;BME280;19433;51.292;6.868;2022-12-24T15:58:43;100310.78;;;6.99;100.00
33075;BME280;19433;51.292;6.868;2022-12-24T16:16:48;100314.13;;;6.72;100.00
33075;BME280;19433;51.292;6.868;2022-12-24T16:19:24;100307.19;;;6.76;100.00
33075;BME280;19433;51.292;6.868;2022-12-24T16:21:54;100300.16;;;6.74;100.00
33075;BME280;19433;51.292;6.868;2022-12-24T16:34:42;100313.44;;;6.70;100.00
33075;BME280;19433;51.292;6.868;2022-12-24T16:47:30;100322.56;;;6.40;100.00
33075;BME280;19433;51.292;6.868;2022-12-24T16:52:31;100330.94;;;6.15;100.00
33075;BME280;19433;51.292;6.868;2022-12-24T16:57:38;100338.72;;;6.34;100.00
33075;BME280;19433;51.292;6.868;2022-12-24T17:00:06;100325.69;;;6.28;100.00
33075;BME280;19433;51.292;6.868;2022-12-24T17:02:32;100330.66;;;6.33;100.00
33075;BME280;19433;51.292;6.868;2022-12-24T17:04:58;100335.13;;;6.34;100.00
33075;BME280;19433;51.292;6.868;2022-12-24T17:07:23;100344.88;;;6.37;100.00
33075;BME280;19433;51.292;6.868;2022-12-24T17:09:48;100335.81;;;6.28;100.00
33075;BME280;19433;51.292;6.868;2022-12-24T17:14:49;100335.97;;;6.34;100.00
33075;BME280;19433;51.292;6.868;2022-12-24T17:19:49;100341.47;;;6.26;100.00
33075;BME280;19433;51.292;6.868;2022-12-24T17:22:14;100338.03;;;6.32;100.00
33075;BME280;19433;51.292;6.868;2022-12-24T17:24:40;100345.56;;;6.39;100.00
33075;BME280;19433;51.292;6.868;2022-12-24T17:27:05;100336.41;;;6.46;100.00
33075;BME280;19433;51.292;6.868;2022-12-24T17:29:30;100336.91;;;6.50;100.00
33075;BME280;19433;51.292;6.868;2022-12-24T17:31:56;100339.38;;;6.37;100.00
33075;BME280;19433;51.292;6.868;2022-12-24T17:34:21;100325.94;;;6.50;100.00
33075;BME280;19433;51.292;6.868;2022-12-24T17:36:46;100336.38;;;6.54;100.00
33075;BME280;19433;51.292;6.868;2022-12-24T17:39:11;100342.03;;;6.53;100.00
33075;BME280;19433;51.292;6.868;2022-12-24T17:41:37;100352.75;;;6.62;100.00
33075;BME280;19433;51.292;6.868;2022-12-24T17:44:02;100344.34;;;6.64;100.00
33075;BME280;19433;51.292;6.868;2022-12-24T17:46:28;100345.63;;;6.53;100.00
33075;BME280;19433;51.292;6.868;2022-12-24T17:48:54;100347.69;;;6.51;100.00
33075;BME280;19433;51.292;6.868;2022-12-24T17:51:21;100341.84;;;6.54;100.00
33075;BME280;19433;51.292;6.868;2022-12-24T17:56:21;100331.31;;;6.66;100.00
33075;BME280;19433;51.292;6.868;2022-12-24T17:58:47;100337.16;;;6.63;100.00
33075;BME280;19433;51.292;6.868;2022-12-24T18:01:15;100338.88;;;6.64;100.00
33075;BME280;19433;51.292;6.868;2022-12-24T18:08:51;100360.56;;;6.74;100.00
33075;BME280;19433;51.292;6.868;2022-12-24T18:13:52;100368.28;;;6.78;100.00
33075;BME280;19433;51.292;6.868;2022-12-24T18:16:23;100378.22;;;6.56;100.00
33075;BME280;19433;51.292;6.868;2022-12-24T18:18:50;100361.97;;;6.47;100.00
33075;BME280;19433;51.292;6.868;2022-12-24T18:21:17;100362.88;;;6.39;100.00
33075;BME280;19433;51.292;6.868;2022-12-24T18:23:45;100341.88;;;6.46;100.00
33075;BME280;19433;51.292;6.868;2022-12-24T18:26:11;100347.75;;;6.43;100.00
33075;BME280;19433;51.292;6.868;2022-12-24T18:28:37;100347.75;;;6.43;100.00
33075;BME280;19433;51.292;6.868;2022-12-24T18:31:05;100349.41;;;6.52;100.00
33075;BME280;19433;51.292;6.868;2022-12-24T18:33:32;100348.75;;;6.50;100.00
33075;BME280;19433;51.292;6.868;2022-12-24T18:41:11;100354.84;;;6.29;100.00
33075;BME280;19433;51.292;6.868;2022-12-24T18:43:37;100358.34;;;6.46;100.00
33075;BME280;19433;51.292;6.868;2022-12-24T18:46:13;100349.91;;;6.56;100.00
33075;BME280;19433;51.292;6.868;2022-12-24T18:51:07;100352.34;;;6.74;100.00
33075;BME280;19433;51.292;6.868;2022-12-24T19:08:56;100344.78;;;6.76;100.00
33075;BME280;19433;51.292;6.868;2022-12-24T19:11:22;100341.66;;;7.01;100.00
33075;BME280;19433;51.292;6.868;2022-12-24T19:18:57;100350.59;;;7.18;100.00
33075;BME280;19433;51.292;6.868;2022-12-24T19:29:08;100361.34;;;7.05;100.00
33075;BME280;19433;51.292;6.868;2022-12-24T19:31:33;100351.16;;;7.14;100.00
33075;BME280;19433;51.292;6.868;2022-12-24T19:33:59;100360.31;;;7.29;100.00